Time;durP1;ratioP1;P1;durP2;ratioP2;P2;SDS_P1;SDS_P2;PMS_P1;PMS_P2;Temp;Humidity;BMP_temperature;BMP_pressure;BME280_temperature;BME280_humidity;BME280_pressure;Samples;Min_cycle;Max_cycle;Signal;HPM_P1;HPM_P2
2021/09/16 00:01:44;;;;;;;81.70;63.58;;;;;;;;;;5116288;27;20400;-88
2021/09/16 00:04:11;;;;;;;82.15;63.22;;;;;;;;;;5117998;27;20398;-89
2021/09/16 00:06:38;;;;;;;78.00;60.70;;;;;;;;;;5119530;27;20881;-87
2021/09/16 00:09:04;;;;;;;82.70;63.60;;;;;;;;;;5111911;27;20412;-88
2021/09/16 00:11:31;;;;;;;82.38;62.88;;;;;;;;;;5116448;27;20403;-87
2021/09/16 00:14:00;;;;;;;83.50;65.57;;;;;;;;;;5116201;27;20421;-88
2021/09/16 00:16:27;;;;;;;82.38;64.07;;;;;;;;;;5111941;27;20398;-88
2021/09/16 00:18:54;;;;;;;81.47;64.22;;;;;;;;;;5119406;27;20419;-88
2021/09/16 00:21:21;;;;;;;78.97;62.85;;;;;;;;;;5116873;27;20475;-88
2021/09/16 00:23:48;;;;;;;83.10;64.93;;;;;;;;;;5119801;27;20468;-88
2021/09/16 00:26:15;;;;;;;85.53;65.35;;;;;;;;;;5096636;22;20419;-86
2021/09/16 00:28:42;;;;;;;80.00;63.58;;;;;;;;;;5044426;28;20895;-86
2021/09/16 00:31:10;;;;;;;86.07;64.30;;;;;;;;;;5043090;28;20423;-86
2021/09/16 00:33:37;;;;;;;82.82;63.65;;;;;;;;;;5044796;28;20403;-86
2021/09/16 00:36:04;;;;;;;78.45;62.22;;;;;;;;;;5045494;28;20414;-85
2021/09/16 00:38:31;;;;;;;80.35;63.45;;;;;;;;;;5043511;28;20682;-86
2021/09/16 00:40:59;;;;;;;77.32;62.55;;;;;;;;;;5044246;28;20875;-86
2021/09/16 00:43:25;;;;;;;78.82;61.83;;;;;;;;;;5046051;28;20395;-86
2021/09/16 00:45:52;;;;;;;83.80;63.08;;;;;;;;;;5040699;28;20832;-86
2021/09/16 00:48:20;;;;;;;80.90;61.88;;;;;;;;;;5044578;28;20423;-86
2021/09/16 00:50:47;;;;;;;77.05;62.00;;;;;;;;;;5044988;28;20460;-86
2021/09/16 00:53:18;;;;;;;75.68;60.40;;;;;;;;;;5045303;28;20396;-86
2021/09/16 00:55:46;;;;;;;80.72;61.17;;;;;;;;;;5044833;28;20402;-86
2021/09/16 00:58:14;;;;;;;79.25;60.60;;;;;;;;;;5045140;28;20938;-86
2021/09/16 01:00:41;;;;;;;73.55;58.63;;;;;;;;;;5044859;28;20410;-86
2021/09/16 01:03:07;;;;;;;76.63;59.20;;;;;;;;;;5045104;28;20413;-86
2021/09/16 01:05:36;;;;;;;75.88;58.85;;;;;;;;;;5044656;28;20827;-86
2021/09/16 01:08:03;;;;;;;74.17;56.43;;;;;;;;;;5045032;28;20403;-86
2021/09/16 01:10:31;;;;;;;72.70;57.13;;;;;;;;;;5039667;28;20936;-85
2021/09/16 01:12:58;;;;;;;78.57;57.58;;;;;;;;;;5041089;28;20938;-86
2021/09/16 01:15:25;;;;;;;76.25;58.22;;;;;;;;;;5044938;28;20811;-86
2021/09/16 01:17:52;;;;;;;75.53;57.97;;;;;;;;;;5044703;28;20406;-86
2021/09/16 01:20:18;;;;;;;74.15;58.42;;;;;;;;;;5044019;28;20516;-86
2021/09/16 01:22:47;;;;;;;75.20;58.15;;;;;;;;;;5044609;28;20402;-86
2021/09/16 01:25:14;;;;;;;74.15;59.15;;;;;;;;;;5044007;28;20395;-86
2021/09/16 01:27:41;;;;;;;73.93;57.92;;;;;;;;;;5039294;28;20427;-86
2021/09/16 01:30:08;;;;;;;76.93;58.55;;;;;;;;;;5044913;28;20412;-86
2021/09/16 01:32:36;;;;;;;72.00;57.83;;;;;;;;;;5044016;28;20908;-86
2021/09/16 01:35:03;;;;;;;76.25;58.40;;;;;;;;;;5044762;28;20682;-86
2021/09/16 01:37:30;;;;;;;74.05;58.08;;;;;;;;;;5040816;28;20477;-86
2021/09/16 01:39:58;;;;;;;75.00;59.05;;;;;;;;;;5044711;28;20894;-86
2021/09/16 01:42:25;;;;;;;74.43;58.75;;;;;;;;;;5043457;28;20408;-86
2021/09/16 01:44:52;;;;;;;74.95;57.75;;;;;;;;;;5039742;28;20473;-86
2021/09/16 01:47:18;;;;;;;79.50;59.65;;;;;;;;;;5044633;28;20756;-86
2021/09/16 01:49:45;;;;;;;78.43;59.72;;;;;;;;;;5043034;28;20903;-86
2021/09/16 01:52:12;;;;;;;74.90;57.97;;;;;;;;;;5044594;28;20396;-86
2021/09/16 01:54:39;;;;;;;71.97;55.60;;;;;;;;;;5044339;28;20400;-86
2021/09/16 01:57:08;;;;;;;71.45;56.60;;;;;;;;;;5044598;28;20594;-86
2021/09/16 01:59:35;;;;;;;71.70;56.67;;;;;;;;;;5047126;28;20427;-86
2021/09/16 02:02:01;;;;;;;75.20;57.10;;;;;;;;;;5039093;28;20421;-86
2021/09/16 02:04:28;;;;;;;76.10;58.47;;;;;;;;;;5031502;28;20406;-86
2021/09/16 02:06:55;;;;;;;76.70;59.33;;;;;;;;;;5048344;28;20891;-86
2021/09/16 02:09:22;;;;;;;72.07;56.90;;;;;;;;;;5046047;28;20415;-86
2021/09/16 02:11:49;;;;;;;76.10;57.13;;;;;;;;;;5048962;28;20763;-86
2021/09/16 02:14:17;;;;;;;74.18;56.85;;;;;;;;;;5048868;28;20407;-86
2021/09/16 02:16:44;;;;;;;77.35;58.50;;;;;;;;;;5048733;28;20413;-86
2021/09/16 02:19:10;;;;;;;72.18;57.22;;;;;;;;;;5048656;28;20419;-86
2021/09/16 02:21:38;;;;;;;70.15;55.80;;;;;;;;;;5048892;28;20408;-86
2021/09/16 02:24:05;;;;;;;75.55;58.55;;;;;;;;;;5048592;28;20880;-86
2021/09/16 02:26:32;;;;;;;70.28;56.65;;;;;;;;;;5047704;28;20477;-86
2021/09/16 02:28:59;;;;;;;75.13;56.67;;;;;;;;;;5047370;28;20415;-86
2021/09/16 02:31:27;;;;;;;74.60;56.03;;;;;;;;;;5048515;28;20768;-86
2021/09/16 02:33:54;;;;;;;72.57;57.60;;;;;;;;;;5048879;28;20736;-86
2021/09/16 02:36:21;;;;;;;74.63;57.03;;;;;;;;;;5048508;28;20399;-86
2021/09/16 02:38:48;;;;;;;70.50;55.53;;;;;;;;;;5048369;28;20403;-86
2021/09/16 02:41:15;;;;;;;70.78;54.45;;;;;;;;;;5048264;28;20427;-86
2021/09/16 02:43:41;;;;;;;66.10;54.28;;;;;;;;;;5048412;28;20695;-86
2021/09/16 02:46:08;;;;;;;68.13;54.55;;;;;;;;;;5046023;28;20484;-86
2021/09/16 02:48:36;;;;;;;68.05;54.25;;;;;;;;;;5048225;28;20679;-86
2021/09/16 02:51:04;;;;;;;67.57;52.70;;;;;;;;;;5048492;28;20756;-86
2021/09/16 02:53:30;;;;;;;65.95;52.60;;;;;;;;;;5047855;28;20459;-86
2021/09/16 02:55:57;;;;;;;66.38;53.33;;;;;;;;;;5048390;28;20438;-86
2021/09/16 02:58:24;;;;;;;65.10;51.88;;;;;;;;;;5048156;28;20490;-86
2021/09/16 03:00:51;;;;;;;62.03;50.40;;;;;;;;;;5048247;28;20953;-86
2021/09/16 03:03:18;;;;;;;62.95;50.45;;;;;;;;;;5048025;28;20403;-86
2021/09/16 03:05:47;;;;;;;64.37;51.37;;;;;;;;;;5048269;28;20407;-87
2021/09/16 03:08:14;;;;;;;60.17;49.60;;;;;;;;;;5047981;28;20434;-86
2021/09/16 03:10:41;;;;;;;62.55;50.85;;;;;;;;;;5046246;28;20792;-86
2021/09/16 03:13:07;;;;;;;62.60;50.30;;;;;;;;;;5047478;28;20411;-86
2021/09/16 03:15:34;;;;;;;62.90;49.67;;;;;;;;;;5047748;28;20395;-86
2021/09/16 03:18:01;;;;;;;58.08;48.70;;;;;;;;;;5047660;28;20403;-86
2021/09/16 03:20:28;;;;;;;61.25;48.60;;;;;;;;;;5047877;28;20443;-86
2021/09/16 03:22:56;;;;;;;60.50;48.38;;;;;;;;;;5047974;28;20400;-86
2021/09/16 03:25:23;;;;;;;60.63;49.30;;;;;;;;;;5047727;28;20423;-86
2021/09/16 03:27:50;;;;;;;60.90;48.40;;;;;;;;;;5047439;28;20835;-87
2021/09/16 03:30:17;;;;;;;61.57;48.40;;;;;;;;;;5047612;28;20452;-87
2021/09/16 03:32:44;;;;;;;58.30;48.20;;;;;;;;;;5047682;28;20407;-86
2021/09/16 03:35:11;;;;;;;59.80;48.90;;;;;;;;;;5046093;28;20415;-86
2021/09/16 03:37:38;;;;;;;63.00;49.40;;;;;;;;;;5047421;28;20787;-86
2021/09/16 03:40:07;;;;;;;64.18;50.03;;;;;;;;;;5047062;28;20422;-86
2021/09/16 03:42:35;;;;;;;65.30;50.70;;;;;;;;;;5047607;28;20399;-86
2021/09/16 03:45:02;;;;;;;66.15;51.67;;;;;;;;;;5047306;28;20435;-86
2021/09/16 03:47:29;;;;;;;67.80;51.23;;;;;;;;;;5047176;28;20441;-86
2021/09/16 03:49:56;;;;;;;67.20;51.90;;;;;;;;;;5047535;28;20410;-86
2021/09/16 03:52:23;;;;;;;64.63;52.00;;;;;;;;;;5046437;28;20422;-86
2021/09/16 03:54:49;;;;;;;67.47;51.67;;;;;;;;;;5046689;28;20435;-86
2021/09/16 03:57:18;;;;;;;66.77;50.30;;;;;;;;;;5047099;28;20426;-86
2021/09/16 03:59:44;;;;;;;68.68;51.10;;;;;;;;;;5047597;28;20415;-86
2021/09/16 04:02:11;;;;;;;66.65;49.40;;;;;;;;;;5047099;28;20840;-86
2021/09/16 04:04:38;;;;;;;68.13;51.50;;;;;;;;;;5039419;28;20417;-86
2021/09/16 04:07:05;;;;;;;65.85;49.88;;;;;;;;;;5045601;28;20411;-86
2021/09/16 04:09:32;;;;;;;69.30;50.75;;;;;;;;;;5044937;28;20993;-86
2021/09/16 04:11:59;;;;;;;70.32;52.25;;;;;;;;;;5045518;28;20419;-86
2021/09/16 04:14:27;;;;;;;67.55;52.25;;;;;;;;;;5046202;28;20400;-86
2021/09/16 04:16:54;;;;;;;69.70;52.95;;;;;;;;;;5046771;28;20753;-86
2021/09/16 04:19:21;;;;;;;73.55;53.38;;;;;;;;;;5043395;28;20956;-85
2021/09/16 04:21:48;;;;;;;68.65;52.13;;;;;;;;;;5044650;28;20406;-85
2021/09/16 04:24:16;;;;;;;76.15;54.63;;;;;;;;;;5044921;28;20400;-86
2021/09/16 04:26:43;;;;;;;72.75;55.10;;;;;;;;;;5043709;28;20586;-86
2021/09/16 04:29:10;;;;;;;78.82;54.78;;;;;;;;;;5041281;28;20404;-86
2021/09/16 04:31:38;;;;;;;75.35;54.10;;;;;;;;;;5044986;28;20407;-85
2021/09/16 04:34:05;;;;;;;79.38;56.70;;;;;;;;;;5045211;28;20416;-86
2021/09/16 04:36:32;;;;;;;82.47;54.85;;;;;;;;;;5045467;28;20453;-86
2021/09/16 04:38:59;;;;;;;76.70;54.10;;;;;;;;;;5044964;28;20415;-86
2021/09/16 04:41:26;;;;;;;79.18;55.33;;;;;;;;;;5044378;28;20430;-86
2021/09/16 04:43:52;;;;;;;78.13;55.08;;;;;;;;;;5040812;28;20414;-86
2021/09/16 04:46:19;;;;;;;83.28;57.53;;;;;;;;;;5044731;28;20415;-86
2021/09/16 04:48:48;;;;;;;81.85;56.50;;;;;;;;;;5043845;28;20422;-86
2021/09/16 04:51:14;;;;;;;78.18;56.53;;;;;;;;;;5045532;28;20418;-86
2021/09/16 04:53:41;;;;;;;76.85;56.75;;;;;;;;;;5045313;28;20403;-86
2021/09/16 04:56:08;;;;;;;80.38;56.80;;;;;;;;;;5045261;28;20407;-86
2021/09/16 04:58:35;;;;;;;76.88;55.78;;;;;;;;;;5045375;28;20400;-85
2021/09/16 05:01:02;;;;;;;76.78;55.03;;;;;;;;;;5040896;28;20430;-85
2021/09/16 05:03:29;;;;;;;80.15;56.10;;;;;;;;;;5045131;28;20537;-86
2021/09/16 05:05:58;;;;;;;82.70;53.85;;;;;;;;;;5046620;28;20395;-91
2021/09/16 05:08:25;;;;;;;83.03;54.08;;;;;;;;;;5046412;28;20403;-87
2021/09/16 05:10:51;;;;;;;86.03;55.83;;;;;;;;;;5044237;28;20418;-85
2021/09/16 05:13:18;;;;;;;77.03;54.63;;;;;;;;;;5045799;28;20414;-85
2021/09/16 05:15:46;;;;;;;79.00;54.42;;;;;;;;;;5045239;28;20414;-85
2021/09/16 05:18:13;;;;;;;78.20;55.67;;;;;;;;;;5044740;28;20430;-86
2021/09/16 05:20:40;;;;;;;78.03;54.15;;;;;;;;;;5039424;28;20423;-85
2021/09/16 05:23:08;;;;;;;74.35;54.33;;;;;;;;;;5043029;28;20740;-85
2021/09/16 05:25:36;;;;;;;75.22;53.50;;;;;;;;;;5040021;28;20423;-85
2021/09/16 05:28:03;;;;;;;75.88;51.50;;;;;;;;;;5042673;28;20411;-86
2021/09/16 05:30:30;;;;;;;76.13;52.92;;;;;;;;;;5041517;28;20414;-85
2021/09/16 05:32:57;;;;;;;72.80;53.30;;;;;;;;;;5042718;28;20875;-84
2021/09/16 05:35:24;;;;;;;71.00;51.83;;;;;;;;;;5044701;28;20584;-84
2021/09/16 05:37:50;;;;;;;69.88;51.47;;;;;;;;;;5043318;28;20400;-86
2021/09/16 05:40:19;;;;;;;71.68;51.83;;;;;;;;;;5041758;28;20411;-84
2021/09/16 05:42:46;;;;;;;72.00;51.67;;;;;;;;;;5038681;28;20407;-84
2021/09/16 05:45:13;;;;;;;69.22;51.05;;;;;;;;;;5044627;28;20921;-84
2021/09/16 05:47:40;;;;;;;67.15;50.33;;;;;;;;;;5044376;28;20406;-85
2021/09/16 05:50:07;;;;;;;73.32;52.40;;;;;;;;;;5043887;28;20502;-84
2021/09/16 05:52:34;;;;;;;72.25;52.28;;;;;;;;;;5044781;28;20396;-84
2021/09/16 05:55:01;;;;;;;68.55;52.35;;;;;;;;;;5044910;28;20410;-85
2021/09/16 05:57:29;;;;;;;71.55;50.97;;;;;;;;;;5043690;28;20403;-85
2021/09/16 05:59:56;;;;;;;71.00;52.58;;;;;;;;;;5043003;28;20392;-84
2021/09/16 06:02:23;;;;;;;68.20;50.53;;;;;;;;;;5042884;28;20411;-84
2021/09/16 06:04:50;;;;;;;69.15;52.60;;;;;;;;;;5041608;28;20834;-84
2021/09/16 06:07:17;;;;;;;71.60;52.85;;;;;;;;;;5045016;28;20471;-85
2021/09/16 06:09:44;;;;;;;72.90;52.15;;;;;;;;;;5041800;28;20410;-84
2021/09/16 06:12:11;;;;;;;66.30;51.55;;;;;;;;;;5024053;28;21072;-85
2021/09/16 06:14:39;;;;;;;72.28;53.92;;;;;;;;;;5044870;28;20411;-85
2021/09/16 06:17:06;;;;;;;74.53;53.65;;;;;;;;;;5044737;28;20414;-85
2021/09/16 06:19:33;;;;;;;72.22;52.85;;;;;;;;;;5045068;28;20399;-85
2021/09/16 06:22:00;;;;;;;69.25;52.50;;;;;;;;;;5044702;28;20428;-85
2021/09/16 06:24:27;;;;;;;71.68;52.88;;;;;;;;;;5045321;28;20403;-83
2021/09/16 06:26:54;;;;;;;75.05;53.10;;;;;;;;;;5039464;28;20895;-85
2021/09/16 06:29:21;;;;;;;72.82;53.70;;;;;;;;;;5045355;28;20400;-85
2021/09/16 06:31:49;;;;;;;68.40;52.28;;;;;;;;;;5045305;28;20781;-84
2021/09/16 06:34:17;;;;;;;72.38;53.88;;;;;;;;;;5045364;28;20399;-84
2021/09/16 06:36:44;;;;;;;77.40;53.40;;;;;;;;;;5045243;28;20435;-84
2021/09/16 06:39:10;;;;;;;68.93;51.08;;;;;;;;;;5045056;28;20411;-84
2021/09/16 06:41:37;;;;;;;72.40;51.50;;;;;;;;;;5044785;28;20420;-84
2021/09/16 06:44:04;;;;;;;72.35;51.70;;;;;;;;;;5045435;28;20399;-85
2021/09/16 06:46:32;;;;;;;64.13;50.25;;;;;;;;;;5046678;28;20776;-85
2021/09/16 06:49:00;;;;;;;62.22;48.70;;;;;;;;;;5047890;28;20446;-85
2021/09/16 06:51:27;;;;;;;61.67;49.30;;;;;;;;;;5048534;28;20404;-85
2021/09/16 06:53:55;;;;;;;65.10;49.40;;;;;;;;;;5048355;28;20394;-84
2021/09/16 06:56:22;;;;;;;63.15;48.42;;;;;;;;;;5048375;28;20411;-85
2021/09/16 06:58:49;;;;;;;63.42;48.50;;;;;;;;;;5048092;28;20392;-85
2021/09/16 07:01:15;;;;;;;65.95;49.25;;;;;;;;;;5048157;28;20431;-85
2021/09/16 07:03:42;;;;;;;64.43;48.00;;;;;;;;;;5044003;28;20875;-84
2021/09/16 07:06:11;;;;;;;64.75;47.40;;;;;;;;;;5048058;28;20746;-84
2021/09/16 07:08:38;;;;;;;60.50;48.05;;;;;;;;;;5048175;28;20412;-84
2021/09/16 07:11:04;;;;;;;62.40;46.80;;;;;;;;;;5047827;28;20757;-85
2021/09/16 07:13:31;;;;;;;61.53;46.97;;;;;;;;;;5048026;28;20415;-84
2021/09/16 07:15:58;;;;;;;59.35;46.20;;;;;;;;;;5047729;28;20406;-85
2021/09/16 07:18:25;;;;;;;60.28;47.20;;;;;;;;;;5047931;28;20404;-85
2021/09/16 07:20:52;;;;;;;59.47;45.67;;;;;;;;;;5047844;28;20423;-84
2021/09/16 07:23:20;;;;;;;62.78;46.60;;;;;;;;;;5047859;28;20400;-83
2021/09/16 07:25:47;;;;;;;59.60;46.10;;;;;;;;;;5047371;28;20408;-84
2021/09/16 07:28:14;;;;;;;56.90;45.17;;;;;;;;;;5047528;28;20404;-85
2021/09/16 07:30:41;;;;;;;59.07;44.93;;;;;;;;;;5047139;28;20415;-85
2021/09/16 07:33:08;;;;;;;57.03;46.40;;;;;;;;;;5047583;28;20526;-85
2021/09/16 07:35:35;;;;;;;62.40;46.03;;;;;;;;;;5047650;28;20500;-85
2021/09/16 07:38:02;;;;;;;62.50;45.03;;;;;;;;;;5047395;28;20883;-85
2021/09/16 07:40:30;;;;;;;60.67;45.70;;;;;;;;;;5047434;28;20411;-85
2021/09/16 07:42:57;;;;;;;58.25;46.90;;;;;;;;;;5047612;28;20406;-84
2021/09/16 07:45:24;;;;;;;58.97;45.92;;;;;;;;;;5047681;28;20400;-85
2021/09/16 07:47:51;;;;;;;56.97;45.33;;;;;;;;;;5047070;28;20792;-85
2021/09/16 07:50:18;;;;;;;58.63;46.47;;;;;;;;;;5047641;28;20544;-85
2021/09/16 07:52:45;;;;;;;58.20;45.15;;;;;;;;;;5046592;28;20415;-85
2021/09/16 07:55:12;;;;;;;61.25;43.97;;;;;;;;;;5047299;28;20902;-82
2021/09/16 07:57:40;;;;;;;57.15;45.22;;;;;;;;;;5047204;28;20403;-86
2021/09/16 08:00:08;;;;;;;55.47;42.15;;;;;;;;;;5047286;28;20408;-85
2021/09/16 08:02:44;;;;;;;53.85;42.45;;;;;;;;;;5046915;28;20431;-84
2021/09/16 08:05:11;;;;;;;53.10;43.20;;;;;;;;;;5046644;28;20442;-85
2021/09/16 08:07:38;;;;;;;52.40;42.33;;;;;;;;;;5046763;28;20404;-84
2021/09/16 08:10:06;;;;;;;55.90;41.10;;;;;;;;;;5046928;28;20418;-85
2021/09/16 08:12:33;;;;;;;48.08;38.53;;;;;;;;;;5047546;28;20487;-84
2021/09/16 08:15:01;;;;;;;45.15;35.45;;;;;;;;;;5045984;28;20403;-84
2021/09/16 08:17:28;;;;;;;43.85;34.05;;;;;;;;;;5044139;28;20756;-85
2021/09/16 08:19:55;;;;;;;40.67;33.80;;;;;;;;;;5046247;28;20396;-82
2021/09/16 08:22:23;;;;;;;40.42;32.85;;;;;;;;;;5046785;28;20445;-84
